sensor_id;sensor_type;location;lat;lon;timestamp;temperature;humidity
77582;DHT22;66726;52.388;9.986;2023-05-10T00:02:25;15.10;68.50
77582;DHT22;66726;52.388;9.986;2023-05-10T00:04:57;15.10;69.00
77582;DHT22;66726;52.388;9.986;2023-05-10T00:07:29;14.90;69.50
77582;DHT22;66726;52.388;9.986;2023-05-10T00:10:01;14.80;70.20
77582;DHT22;66726;52.388;9.986;2023-05-10T00:12:34;14.80;70.30
77582;DHT22;66726;52.388;9.986;2023-05-10T00:15:07;14.90;71.30
77582;DHT22;66726;52.388;9.986;2023-05-10T00:17:40;15.00;71.00
77582;DHT22;66726;52.388;9.986;2023-05-10T00:20:13;14.90;70.90
77582;DHT22;66726;52.388;9.986;2023-05-10T00:22:46;14.90;72.60
77582;DHT22;66726;52.388;9.986;2023-05-10T00:25:18;14.90;72.10
77582;DHT22;66726;52.388;9.986;2023-05-10T00:27:51;14.80;72.00
77582;DHT22;66726;52.388;9.986;2023-05-10T00:30:25;14.80;71.90
77582;DHT22;66726;52.388;9.986;2023-05-10T00:32:57;14.90;72.20
77582;DHT22;66726;52.388;9.986;2023-05-10T00:35:29;14.80;72.80
77582;DHT22;66726;52.388;9.986;2023-05-10T00:38:01;14.80;73.20
77582;DHT22;66726;52.388;9.986;2023-05-10T00:40:33;14.80;73.20
77582;DHT22;66726;52.388;9.986;2023-05-10T00:43:08;14.80;73.70
77582;DHT22;66726;52.388;9.986;2023-05-10T00:45:41;14.70;74.30
77582;DHT22;66726;52.388;9.986;2023-05-10T00:48:14;14.70;74.80
77582;DHT22;66726;52.388;9.986;2023-05-10T00:50:46;14.70;75.50
77582;DHT22;66726;52.388;9.986;2023-05-10T00:53:18;14.60;76.00
77582;DHT22;66726;52.388;9.986;2023-05-10T00:55:51;14.60;76.10
77582;DHT22;66726;52.388;9.986;2023-05-10T00:58:24;14.60;76.00
77582;DHT22;66726;52.388;9.986;2023-05-10T01:00:57;14.70;76.40
77582;DHT22;66726;52.388;9.986;2023-05-10T01:03:31;14.60;76.30
77582;DHT22;66726;52.388;9.986;2023-05-10T01:06:03;14.50;76.60
77582;DHT22;66726;52.388;9.986;2023-05-10T01:08:38;14.60;77.10
77582;DHT22;66726;52.388;9.986;2023-05-10T01:11:10;14.40;76.90
77582;DHT22;66726;52.388;9.986;2023-05-10T01:13:44;14.50;77.50
77582;DHT22;66726;52.388;9.986;2023-05-10T01:16:22;14.50;77.20
77582;DHT22;66726;52.388;9.986;2023-05-10T01:18:54;14.40;77.90
77582;DHT22;66726;52.388;9.986;2023-05-10T01:21:33;14.40;77.90
77582;DHT22;66726;52.388;9.986;2023-05-10T01:24:31;14.30;78.30
77582;DHT22;66726;52.388;9.986;2023-05-10T01:27:41;14.20;78.70
77582;DHT22;66726;52.388;9.986;2023-05-10T01:31:03;14.30;79.60
77582;DHT22;66726;52.388;9.986;2023-05-10T01:33:52;14.20;79.50
77582;DHT22;66726;52.388;9.986;2023-05-10T01:36:32;14.20;79.80
77582;DHT22;66726;52.388;9.986;2023-05-10T01:39:15;14.30;79.30
77582;DHT22;66726;52.388;9.986;2023-05-10T01:41:57;14.30;80.10
77582;DHT22;66726;52.388;9.986;2023-05-10T01:44:38;14.20;80.50
77582;DHT22;66726;52.388;9.986;2023-05-10T01:47:29;14.20;81.10
77582;DHT22;66726;52.388;9.986;2023-05-10T01:50:09;14.20;80.80
77582;DHT22;66726;52.388;9.986;2023-05-10T01:52:47;14.10;81.00
77582;DHT22;66726;52.388;9.986;2023-05-10T01:55:27;14.00;81.30
77582;DHT22;66726;52.388;9.986;2023-05-10T01:58:05;14.00;81.90
77582;DHT22;66726;52.388;9.986;2023-05-10T02:00:42;13.90;82.30
77582;DHT22;66726;52.388;9.986;2023-05-10T02:03:18;14.00;82.80
77582;DHT22;66726;52.388;9.986;2023-05-10T02:05:55;14.00;82.70
77582;DHT22;66726;52.388;9.986;2023-05-10T02:08:28;13.90;83.30
77582;DHT22;66726;52.388;9.986;2023-05-10T02:11:03;13.80;83.50
77582;DHT22;66726;52.388;9.986;2023-05-10T02:13:39;13.90;83.80
77582;DHT22;66726;52.388;9.986;2023-05-10T02:16:14;13.80;84.10
77582;DHT22;66726;52.388;9.986;2023-05-10T02:18:49;13.90;83.90
77582;DHT22;66726;52.388;9.986;2023-05-10T02:21:23;13.80;84.10
77582;DHT22;66726;52.388;9.986;2023-05-10T02:23:57;13.90;84.40
77582;DHT22;66726;52.388;9.986;2023-05-10T02:26:31;13.90;84.60
77582;DHT22;66726;52.388;9.986;2023-05-10T02:29:05;13.90;84.70
77582;DHT22;66726;52.388;9.986;2023-05-10T02:31:40;13.90;85.00
77582;DHT22;66726;52.388;9.986;2023-05-10T02:34:13;13.90;84.90
77582;DHT22;66726;52.388;9.986;2023-05-10T02:36:46;13.80;85.40
77582;DHT22;66726;52.388;9.986;2023-05-10T02:39:20;13.80;85.40
77582;DHT22;66726;52.388;9.986;2023-05-10T02:41:55;13.80;85.80
77582;DHT22;66726;52.388;9.986;2023-05-10T02:44:31;13.80;86.80
77582;DHT22;66726;52.388;9.986;2023-05-10T02:47:05;13.70;85.80
77582;DHT22;66726;52.388;9.986;2023-05-10T02:49:38;13.80;86.40
77582;DHT22;66726;52.388;9.986;2023-05-10T02:52:11;13.80;86.50
77582;DHT22;66726;52.388;9.986;2023-05-10T02:54:54;13.70;86.90
77582;DHT22;66726;52.388;9.986;2023-05-10T02:57:34;13.70;87.30
77582;DHT22;66726;52.388;9.986;2023-05-10T03:00:10;13.60;87.40
77582;DHT22;66726;52.388;9.986;2023-05-10T03:02:44;13.60;87.50
77582;DHT22;66726;52.388;9.986;2023-05-10T03:05:16;13.60;87.50
77582;DHT22;66726;52.388;9.986;2023-05-10T03:07:49;13.60;88.00
77582;DHT22;66726;52.388;9.986;2023-05-10T03:10:23;13.70;87.90
77582;DHT22;66726;52.388;9.986;2023-05-10T03:13:05;13.70;87.90
77582;DHT22;66726;52.388;9.986;2023-05-10T03:15:51;13.50;88.30
77582;DHT22;66726;52.388;9.986;2023-05-10T03:18:33;13.50;88.50
77582;DHT22;66726;52.388;9.986;2023-05-10T03:21:10;13.50;88.70
77582;DHT22;66726;52.388;9.986;2023-05-10T03:23:50;13.40;89.00
77582;DHT22;66726;52.388;9.986;2023-05-10T03:26:28;13.40;89.20
77582;DHT22;66726;52.388;9.986;2023-05-10T03:29:02;13.40;89.40
77582;DHT22;66726;52.388;9.986;2023-05-10T03:31:36;13.40;89.30
77582;DHT22;66726;52.388;9.986;2023-05-10T03:34:08;13.30;89.80
77582;DHT22;66726;52.388;9.986;2023-05-10T03:36:40;13.30;90.00
77582;DHT22;66726;52.388;9.986;2023-05-10T03:39:13;13.30;90.00
77582;DHT22;66726;52.388;9.986;2023-05-10T03:41:45;13.40;89.90
77582;DHT22;66726;52.388;9.986;2023-05-10T03:44:17;13.40;90.00
77582;DHT22;66726;52.388;9.986;2023-05-10T03:46:49;13.30;90.30
77582;DHT22;66726;52.388;9.986;2023-05-10T03:49:21;13.30;90.40
77582;DHT22;66726;52.388;9.986;2023-05-10T03:51:53;13.30;90.60
77582;DHT22;66726;52.388;9.986;2023-05-10T03:54:26;13.30;90.90
77582;DHT22;66726;52.388;9.986;2023-05-10T03:56:58;13.30;91.30
77582;DHT22;66726;52.388;9.986;2023-05-10T03:59:31;13.30;91.50
77582;DHT22;66726;52.388;9.986;2023-05-10T04:02:03;13.30;92.00
77582;DHT22;66726;52.388;9.986;2023-05-10T04:04:35;13.30;92.10
77582;DHT22;66726;52.388;9.986;2023-05-10T04:07:06;13.30;92.40
77582;DHT22;66726;52.388;9.986;2023-05-10T04:09:40;13.30;92.30
77582;DHT22;66726;52.388;9.986;2023-05-10T04:12:12;13.20;92.40
77582;DHT22;66726;52.388;9.986;2023-05-10T04:14:44;13.20;92.30
77582;DHT22;66726;52.388;9.986;2023-05-10T04:17:16;13.20;92.40
77582;DHT22;66726;52.388;9.986;2023-05-10T04:19:47;13.30;92.60
77582;DHT22;66726;52.388;9.986;2023-05-10T04:22:21;13.20;92.70
77582;DHT22;66726;52.388;9.986;2023-05-10T04:24:54;13.10;92.80
77582;DHT22;66726;52.388;9.986;2023-05-10T04:27:26;13.10;93.00
77582;DHT22;66726;52.388;9.986;2023-05-10T04:29:58;13.10;93.20
77582;DHT22;66726;52.388;9.986;2023-05-10T04:32:29;13.10;93.40
77582;DHT22;66726;52.388;9.986;2023-05-10T04:35:01;13.10;93.50
77582;DHT22;66726;52.388;9.986;2023-05-10T04:37:33;13.10;93.60
77582;DHT22;66726;52.388;9.986;2023-05-10T04:40:09;13.20;93.80
77582;DHT22;66726;52.388;9.986;2023-05-10T04:42:43;13.20;94.20
77582;DHT22;66726;52.388;9.986;2023-05-10T04:45:15;13.10;94.40
77582;DHT22;66726;52.388;9.986;2023-05-10T04:47:47;13.10;94.90
77582;DHT22;66726;52.388;9.986;2023-05-10T04:50:18;13.10;95.50
77582;DHT22;66726;52.388;9.986;2023-05-10T04:52:50;13.10;95.40
77582;DHT22;66726;52.388;9.986;2023-05-10T04:55:23;13.10;95.80
77582;DHT22;66726;52.388;9.986;2023-05-10T04:57:55;13.10;96.50
77582;DHT22;66726;52.388;9.986;2023-05-10T05:00:27;13.10;96.30
77582;DHT22;66726;52.388;9.986;2023-05-10T05:02:59;13.00;96.60
77582;DHT22;66726;52.388;9.986;2023-05-10T05:05:31;13.10;96.70
77582;DHT22;66726;52.388;9.986;2023-05-10T05:08:03;13.00;97.00
77582;DHT22;66726;52.388;9.986;2023-05-10T05:10:36;13.10;97.20
77582;DHT22;66726;52.388;9.986;2023-05-10T05:13:08;13.10;97.20
77582;DHT22;66726;52.388;9.986;2023-05-10T05:15:41;13.00;97.40
77582;DHT22;66726;52.388;9.986;2023-05-10T05:18:13;13.00;97.50
77582;DHT22;66726;52.388;9.986;2023-05-10T05:20:45;13.00;97.50
77582;DHT22;66726;52.388;9.986;2023-05-10T05:23:17;13.00;97.40
77582;DHT22;66726;52.388;9.986;2023-05-10T05:25:54;12.90;97.80
77582;DHT22;66726;52.388;9.986;2023-05-10T05:28:26;12.80;97.80
77582;DHT22;66726;52.388;9.986;2023-05-10T05:31:01;12.90;97.90
77582;DHT22;66726;52.388;9.986;2023-05-10T05:33:33;12.90;98.80
77582;DHT22;66726;52.388;9.986;2023-05-10T05:36:07;12.90;98.70
77582;DHT22;66726;52.388;9.986;2023-05-10T05:38:38;12.90;98.80
77582;DHT22;66726;52.388;9.986;2023-05-10T05:41:12;13.00;99.00
77582;DHT22;66726;52.388;9.986;2023-05-10T05:43:44;13.00;99.00
77582;DHT22;66726;52.388;9.986;2023-05-10T05:46:16;13.00;99.40
77582;DHT22;66726;52.388;9.986;2023-05-10T05:48:48;13.00;99.70
77582;DHT22;66726;52.388;9.986;2023-05-10T05:51:20;13.00;99.80
77582;DHT22;66726;52.388;9.986;2023-05-10T05:53:51;13.00;99.90
77582;DHT22;66726;52.388;9.986;2023-05-10T05:56:25;13.00;99.90
77582;DHT22;66726;52.388;9.986;2023-05-10T05:58:56;13.00;99.90
77582;DHT22;66726;52.388;9.986;2023-05-10T06:01:28;13.00;99.90
77582;DHT22;66726;52.388;9.986;2023-05-10T06:04:00;13.00;99.90
77582;DHT22;66726;52.388;9.986;2023-05-10T06:06:32;13.00;99.90
77582;DHT22;66726;52.388;9.986;2023-05-10T06:09:04;13.00;99.90
77582;DHT22;66726;52.388;9.986;2023-05-10T06:11:37;13.00;99.90
77582;DHT22;66726;52.388;9.986;2023-05-10T06:14:09;13.00;99.90
77582;DHT22;66726;52.388;9.986;2023-05-10T06:16:41;13.00;99.90
77582;DHT22;66726;52.388;9.986;2023-05-10T06:19:13;13.00;99.90
77582;DHT22;66726;52.388;9.986;2023-05-10T06:21:45;13.00;99.90
77582;DHT22;66726;52.388;9.986;2023-05-10T06:24:17;13.10;99.90
77582;DHT22;66726;52.388;9.986;2023-05-10T06:26:51;13.10;99.90
77582;DHT22;66726;52.388;9.986;2023-05-10T06:29:23;13.10;99.90
77582;DHT22;66726;52.388;9.986;2023-05-10T06:31:56;13.20;99.90
77582;DHT22;66726;52.388;9.986;2023-05-10T06:34:28;13.20;99.90
77582;DHT22;66726;52.388;9.986;2023-05-10T06:37:00;13.20;99.90
77582;DHT22;66726;52.388;9.986;2023-05-10T06:39:32;13.20;99.90
77582;DHT22;66726;52.388;9.986;2023-05-10T06:42:06;13.20;99.90
77582;DHT22;66726;52.388;9.986;2023-05-10T06:44:38;13.30;99.90
77582;DHT22;66726;52.388;9.986;2023-05-10T06:47:10;13.30;99.90
77582;DHT22;66726;52.388;9.986;2023-05-10T06:49:42;13.30;99.90
77582;DHT22;66726;52.388;9.986;2023-05-10T06:52:14;13.30;99.90
77582;DHT22;66726;52.388;9.986;2023-05-10T06:54:46;13.30;99.90
77582;DHT22;66726;52.388;9.986;2023-05-10T06:57:19;13.20;99.90
77582;DHT22;66726;52.388;9.986;2023-05-10T06:59:59;13.20;99.90
77582;DHT22;66726;52.388;9.986;2023-05-10T07:02:32;13.20;99.90
77582;DHT22;66726;52.388;9.986;2023-05-10T07:05:04;13.10;99.90
77582;DHT22;66726;52.388;9.986;2023-05-10T07:07:36;13.10;99.90
77582;DHT22;66726;52.388;9.986;2023-05-10T07:10:11;13.20;99.90
77582;DHT22;66726;52.388;9.986;2023-05-10T07:12:44;13.20;99.90
77582;DHT22;66726;52.388;9.986;2023-05-10T07:15:16;13.20;99.90
77582;DHT22;66726;52.388;9.986;2023-05-10T07:17:48;13.30;99.90
77582;DHT22;66726;52.388;9.986;2023-05-10T07:20:20;13.30;99.90
77582;DHT22;66726;52.388;9.986;2023-05-10T07:22:52;13.20;99.90
77582;DHT22;66726;52.388;9.986;2023-05-10T07:25:24;13.30;99.90
77582;DHT22;66726;52.388;9.986;2023-05-10T07:27:57;13.30;99.90
77582;DHT22;66726;52.388;9.986;2023-05-10T07:30:29;13.40;99.90
77582;DHT22;66726;52.388;9.986;2023-05-10T07:33:01;13.40;99.90
77582;DHT22;66726;52.388;9.986;2023-05-10T07:35:33;13.40;99.90
77582;DHT22;66726;52.388;9.986;2023-05-10T07:38:05;13.40;99.90
77582;DHT22;66726;52.388;9.986;2023-05-10T07:40:37;13.50;99.90
77582;DHT22;66726;52.388;9.986;2023-05-10T07:43:10;13.50;99.90
77582;DHT22;66726;52.388;9.986;2023-05-10T07:45:43;13.50;99.90
77582;DHT22;66726;52.388;9.986;2023-05-10T07:48:17;13.50;99.90
77582;DHT22;66726;52.388;9.986;2023-05-10T07:50:49;13.50;99.90
77582;DHT22;66726;52.388;9.986;2023-05-10T07:53:22;13.50;99.90
77582;DHT22;66726;52.388;9.986;2023-05-10T07:55:56;13.60;99.90
77582;DHT22;66726;52.388;9.986;2023-05-10T07:58:29;13.60;99.90
77582;DHT22;66726;52.388;9.986;2023-05-10T08:01:03;13.60;99.90
77582;DHT22;66726;52.388;9.986;2023-05-10T08:03:35;13.50;99.90
77582;DHT22;66726;52.388;9.986;2023-05-10T08:06:07;13.50;99.90
77582;DHT22;66726;52.388;9.986;2023-05-10T08:08:41;13.50;99.90
77582;DHT22;66726;52.388;9.986;2023-05-10T08:11:14;13.40;99.90
77582;DHT22;66726;52.388;9.986;2023-05-10T08:13:47;13.40;99.90
77582;DHT22;66726;52.388;9.986;2023-05-10T08:16:22;13.50;99.90
77582;DHT22;66726;52.388;9.986;2023-05-10T08:18:54;13.50;99.90
77582;DHT22;66726;52.388;9.986;2023-05-10T08:21:26;13.50;99.90
77582;DHT22;66726;52.388;9.986;2023-05-10T08:23:59;13.50;99.90
77582;DHT22;66726;52.388;9.986;2023-05-10T08:26:33;13.50;99.90
77582;DHT22;66726;52.388;9.986;2023-05-10T08:29:06;13.50;99.90
77582;DHT22;66726;52.388;9.986;2023-05-10T08:31:38;13.50;99.90
77582;DHT22;66726;52.388;9.986;2023-05-10T08:34:10;13.50;99.90
77582;DHT22;66726;52.388;9.986;2023-05-10T08:36:42;13.50;99.90
77582;DHT22;66726;52.388;9.986;2023-05-10T08:39:15;13.40;99.90
77582;DHT22;66726;52.388;9.986;2023-05-10T08:42:01;13.40;99.90
77582;DHT22;66726;52.388;9.986;2023-05-10T08:44:36;13.40;99.90
77582;DHT22;66726;52.388;9.986;2023-05-10T08:47:08;13.50;99.90
77582;DHT22;66726;52.388;9.986;2023-05-10T08:49:43;13.50;99.90
77582;DHT22;66726;52.388;9.986;2023-05-10T08:52:21;13.50;99.90
77582;DHT22;66726;52.388;9.986;2023-05-10T08:54:57;13.50;99.90
77582;DHT22;66726;52.388;9.986;2023-05-10T08:57:32;13.60;99.90
77582;DHT22;66726;52.388;9.986;2023-05-10T09:00:08;13.60;99.90
77582;DHT22;66726;52.388;9.986;2023-05-10T09:02:41;13.70;99.90
77582;DHT22;66726;52.388;9.986;2023-05-10T09:05:16;13.80;99.90
77582;DHT22;66726;52.388;9.986;2023-05-10T09:07:50;13.80;99.90
77582;DHT22;66726;52.388;9.986;2023-05-10T09:10:24;13.90;99.90
77582;DHT22;66726;52.388;9.986;2023-05-10T09:12:59;13.90;99.90
77582;DHT22;66726;52.388;9.986;2023-05-10T09:15:33;14.00;99.90
77582;DHT22;66726;52.388;9.986;2023-05-10T09:18:06;14.00;99.90
77582;DHT22;66726;52.388;9.986;2023-05-10T09:20:38;14.00;99.90
77582;DHT22;66726;52.388;9.986;2023-05-10T09:23:10;14.10;99.90
77582;DHT22;66726;52.388;9.986;2023-05-10T09:25:43;14.10;99.90
77582;DHT22;66726;52.388;9.986;2023-05-10T09:28:17;14.10;99.90
77582;DHT22;66726;52.388;9.986;2023-05-10T09:30:54;14.20;99.90
77582;DHT22;66726;52.388;9.986;2023-05-10T09:33:27;14.10;99.90
77582;DHT22;66726;52.388;9.986;2023-05-10T09:36:14;14.20;99.90
77582;DHT22;66726;52.388;9.986;2023-05-10T09:38:48;14.10;99.90
77582;DHT22;66726;52.388;9.986;2023-05-10T09:41:22;14.10;99.90
77582;DHT22;66726;52.388;9.986;2023-05-10T09:43:57;14.10;99.90
77582;DHT22;66726;52.388;9.986;2023-05-10T09:46:30;14.00;99.90
77582;DHT22;66726;52.388;9.986;2023-05-10T09:49:07;13.90;99.90
77582;DHT22;66726;52.388;9.986;2023-05-10T09:51:43;14.00;99.90
77582;DHT22;66726;52.388;9.986;2023-05-10T09:54:16;13.90;99.90
77582;DHT22;66726;52.388;9.986;2023-05-10T09:56:49;13.90;99.90
77582;DHT22;66726;52.388;9.986;2023-05-10T09:59:21;13.90;99.90
77582;DHT22;66726;52.388;9.986;2023-05-10T10:01:57;13.90;99.90
77582;DHT22;66726;52.388;9.986;2023-05-10T10:04:30;13.90;99.90
77582;DHT22;66726;52.388;9.986;2023-05-10T10:07:08;13.80;99.90
77582;DHT22;66726;52.388;9.986;2023-05-10T10:09:40;13.90;99.90
77582;DHT22;66726;52.388;9.986;2023-05-10T10:12:12;13.80;99.90
77582;DHT22;66726;52.388;9.986;2023-05-10T10:14:50;13.90;99.90
77582;DHT22;66726;52.388;9.986;2023-05-10T10:17:26;13.90;99.90
77582;DHT22;66726;52.388;9.986;2023-05-10T10:20:01;14.00;99.90
77582;DHT22;66726;52.388;9.986;2023-05-10T10:22:40;14.10;99.90
77582;DHT22;66726;52.388;9.986;2023-05-10T10:25:16;14.10;99.90
77582;DHT22;66726;52.388;9.986;2023-05-10T10:27:59;14.20;99.90
77582;DHT22;66726;52.388;9.986;2023-05-10T10:30:43;14.20;99.90
77582;DHT22;66726;52.388;9.986;2023-05-10T10:33:33;14.20;99.90
77582;DHT22;66726;52.388;9.986;2023-05-10T10:36:15;14.30;99.90
77582;DHT22;66726;52.388;9.986;2023-05-10T10:38:59;14.30;99.90
77582;DHT22;66726;52.388;9.986;2023-05-10T10:41:39;14.30;99.90
77582;DHT22;66726;52.388;9.986;2023-05-10T10:44:33;14.30;99.90
77582;DHT22;66726;52.388;9.986;2023-05-10T10:47:21;14.30;99.90
77582;DHT22;66726;52.388;9.986;2023-05-10T10:50:07;14.40;99.90
77582;DHT22;66726;52.388;9.986;2023-05-10T10:52:42;14.40;99.90
77582;DHT22;66726;52.388;9.986;2023-05-10T10:55:19;14.40;99.90
77582;DHT22;66726;52.388;9.986;2023-05-10T10:57:54;14.50;99.90
77582;DHT22;66726;52.388;9.986;2023-05-10T11:00:31;14.50;99.90
77582;DHT22;66726;52.388;9.986;2023-05-10T11:03:06;14.40;99.90
77582;DHT22;66726;52.388;9.986;2023-05-10T11:05:44;14.40;99.90
77582;DHT22;66726;52.388;9.986;2023-05-10T11:08:17;14.50;99.90
77582;DHT22;66726;52.388;9.986;2023-05-10T11:11:04;14.50;99.90
77582;DHT22;66726;52.388;9.986;2023-05-10T11:13:41;14.60;99.90
77582;DHT22;66726;52.388;9.986;2023-05-10T11:16:20;14.70;99.90
77582;DHT22;66726;52.388;9.986;2023-05-10T11:18:58;14.70;99.90
77582;DHT22;66726;52.388;9.986;2023-05-10T11:21:34;14.70;99.90
77582;DHT22;66726;52.388;9.986;2023-05-10T11:24:18;14.80;99.90
77582;DHT22;66726;52.388;9.986;2023-05-10T11:26:53;14.90;99.90
77582;DHT22;66726;52.388;9.986;2023-05-10T11:29:25;14.90;99.90
77582;DHT22;66726;52.388;9.986;2023-05-10T11:31:59;15.00;99.90
77582;DHT22;66726;52.388;9.986;2023-05-10T11:34:33;15.00;99.90
77582;DHT22;66726;52.388;9.986;2023-05-10T11:37:06;15.10;99.90
77582;DHT22;66726;52.388;9.986;2023-05-10T11:39:38;15.10;99.90
77582;DHT22;66726;52.388;9.986;2023-05-10T11:42:15;15.10;99.90
77582;DHT22;66726;52.388;9.986;2023-05-10T11:44:47;15.10;99.90
77582;DHT22;66726;52.388;9.986;2023-05-10T11:47:19;15.20;99.90
77582;DHT22;66726;52.388;9.986;2023-05-10T11:49:54;15.30;99.90
77582;DHT22;66726;52.388;9.986;2023-05-10T11:52:28;15.30;99.90
77582;DHT22;66726;52.388;9.986;2023-05-10T11:55:05;15.40;99.90
77582;DHT22;66726;52.388;9.986;2023-05-10T11:57:38;15.40;99.90
77582;DHT22;66726;52.388;9.986;2023-05-10T12:00:10;15.50;99.90
77582;DHT22;66726;52.388;9.986;2023-05-10T12:02:44;15.60;99.90
77582;DHT22;66726;52.388;9.986;2023-05-10T12:05:17;15.60;99.90
77582;DHT22;66726;52.388;9.986;2023-05-10T12:07:50;15.60;99.90
77582;DHT22;66726;52.388;9.986;2023-05-10T12:10:27;15.60;99.90
77582;DHT22;66726;52.388;9.986;2023-05-10T12:13:04;15.70;99.90
77582;DHT22;66726;52.388;9.986;2023-05-10T12:15:39;15.80;99.90
77582;DHT22;66726;52.388;9.986;2023-05-10T12:18:12;15.70;99.90
77582;DHT22;66726;52.388;9.986;2023-05-10T12:20:44;15.90;99.90
77582;DHT22;66726;52.388;9.986;2023-05-10T12:23:17;15.90;99.90
77582;DHT22;66726;52.388;9.986;2023-05-10T12:25:49;16.00;99.90
77582;DHT22;66726;52.388;9.986;2023-05-10T12:28:22;16.10;99.90
77582;DHT22;66726;52.388;9.986;2023-05-10T12:30:55;16.20;99.90
77582;DHT22;66726;52.388;9.986;2023-05-10T12:33:28;16.40;99.90
77582;DHT22;66726;52.388;9.986;2023-05-10T12:36:10;16.40;99.90
77582;DHT22;66726;52.388;9.986;2023-05-10T12:38:45;16.50;99.90
77582;DHT22;66726;52.388;9.986;2023-05-10T12:41:19;16.70;99.90
77582;DHT22;66726;52.388;9.986;2023-05-10T12:43:50;16.70;99.90
77582;DHT22;66726;52.388;9.986;2023-05-10T12:46:22;16.80;99.90
77582;DHT22;66726;52.388;9.986;2023-05-10T12:48:56;16.80;99.90
77582;DHT22;66726;52.388;9.986;2023-05-10T12:51:37;16.80;99.90
77582;DHT22;66726;52.388;9.986;2023-05-10T12:54:10;16.90;99.90
77582;DHT22;66726;52.388;9.986;2023-05-10T12:56:42;17.00;99.90
77582;DHT22;66726;52.388;9.986;2023-05-10T12:59:15;17.10;99.90
77582;DHT22;66726;52.388;9.986;2023-05-10T13:01:47;17.10;99.30
77582;DHT22;66726;52.388;9.986;2023-05-10T13:04:19;17.10;98.60
77582;DHT22;66726;52.388;9.986;2023-05-10T13:06:50;17.10;98.80
77582;DHT22;66726;52.388;9.986;2023-05-10T13:09:25;17.00;99.90
77582;DHT22;66726;52.388;9.986;2023-05-10T13:11:58;17.00;99.90
77582;DHT22;66726;52.388;9.986;2023-05-10T13:14:31;17.10;99.90
77582;DHT22;66726;52.388;9.986;2023-05-10T13:17:03;17.10;99.90
77582;DHT22;66726;52.388;9.986;2023-05-10T13:19:35;17.00;99.90
77582;DHT22;66726;52.388;9.986;2023-05-10T13:22:07;17.10;99.90
77582;DHT22;66726;52.388;9.986;2023-05-10T13:24:40;17.10;99.90
77582;DHT22;66726;52.388;9.986;2023-05-10T13:27:12;17.10;99.90
77582;DHT22;66726;52.388;9.986;2023-05-10T13:29:44;17.10;99.70
77582;DHT22;66726;52.388;9.986;2023-05-10T13:32:16;17.00;99.30
77582;DHT22;66726;52.388;9.986;2023-05-10T13:34:48;17.00;99.90
77582;DHT22;66726;52.388;9.986;2023-05-10T13:37:20;17.00;99.90
77582;DHT22;66726;52.388;9.986;2023-05-10T13:39:53;17.10;99.90
77582;DHT22;66726;52.388;9.986;2023-05-10T13:42:25;17.10;99.90
77582;DHT22;66726;52.388;9.986;2023-05-10T13:44:57;17.20;99.90
77582;DHT22;66726;52.388;9.986;2023-05-10T13:47:29;17.30;99.90
77582;DHT22;66726;52.388;9.986;2023-05-10T13:50:01;17.30;99.90
77582;DHT22;66726;52.388;9.986;2023-05-10T13:52:33;17.40;99.90
77582;DHT22;66726;52.388;9.986;2023-05-10T13:55:08;17.50;99.90
77582;DHT22;66726;52.388;9.986;2023-05-10T13:57:40;17.50;99.80
77582;DHT22;66726;52.388;9.986;2023-05-10T14:00:13;17.40;99.40
77582;DHT22;66726;52.388;9.986;2023-05-10T14:02:46;17.40;99.90
77582;DHT22;66726;52.388;9.986;2023-05-10T14:05:19;17.40;99.70
77582;DHT22;66726;52.388;9.986;2023-05-10T14:07:54;17.50;99.80
77582;DHT22;66726;52.388;9.986;2023-05-10T14:10:27;17.40;99.70
77582;DHT22;66726;52.388;9.986;2023-05-10T14:12:59;17.50;99.90
77582;DHT22;66726;52.388;9.986;2023-05-10T14:15:30;17.50;99.90
77582;DHT22;66726;52.388;9.986;2023-05-10T14:18:02;17.50;99.70
77582;DHT22;66726;52.388;9.986;2023-05-10T14:20:34;17.50;99.40
77582;DHT22;66726;52.388;9.986;2023-05-10T14:23:06;17.50;99.40
77582;DHT22;66726;52.388;9.986;2023-05-10T14:25:41;17.40;98.70
77582;DHT22;66726;52.388;9.986;2023-05-10T14:28:13;17.50;99.70
77582;DHT22;66726;52.388;9.986;2023-05-10T14:30:45;17.50;99.90
77582;DHT22;66726;52.388;9.986;2023-05-10T14:33:18;17.50;99.80
77582;DHT22;66726;52.388;9.986;2023-05-10T14:35:50;17.50;99.90
77582;DHT22;66726;52.388;9.986;2023-05-10T14:38:25;17.60;99.90
77582;DHT22;66726;52.388;9.986;2023-05-10T14:40:58;17.60;99.90
77582;DHT22;66726;52.388;9.986;2023-05-10T14:43:30;17.60;99.90
77582;DHT22;66726;52.388;9.986;2023-05-10T14:46:02;17.60;99.60
77582;DHT22;66726;52.388;9.986;2023-05-10T14:48:34;17.50;99.50
77582;DHT22;66726;52.388;9.986;2023-05-10T14:51:06;17.40;99.20
77582;DHT22;66726;52.388;9.986;2023-05-10T14:53:38;17.30;99.00
77582;DHT22;66726;52.388;9.986;2023-05-10T14:56:10;17.10;98.90
77582;DHT22;66726;52.388;9.986;2023-05-10T14:58:42;17.10;99.10
77582;DHT22;66726;52.388;9.986;2023-05-10T15:01:14;17.00;99.50
77582;DHT22;66726;52.388;9.986;2023-05-10T15:03:47;16.90;99.90
77582;DHT22;66726;52.388;9.986;2023-05-10T15:06:29;16.90;99.90
77582;DHT22;66726;52.388;9.986;2023-05-10T15:09:04;16.70;99.90
77582;DHT22;66726;52.388;9.986;2023-05-10T15:11:37;16.70;99.90
77582;DHT22;66726;52.388;9.986;2023-05-10T15:14:09;16.70;99.90
77582;DHT22;66726;52.388;9.986;2023-05-10T15:16:41;16.70;99.90
77582;DHT22;66726;52.388;9.986;2023-05-10T15:19:13;16.60;99.90
77582;DHT22;66726;52.388;9.986;2023-05-10T15:21:45;16.50;99.90
77582;DHT22;66726;52.388;9.986;2023-05-10T15:24:17;16.50;99.90
77582;DHT22;66726;52.388;9.986;2023-05-10T15:26:50;16.50;99.90
77582;DHT22;66726;52.388;9.986;2023-05-10T15:29:22;16.50;99.90
77582;DHT22;66726;52.388;9.986;2023-05-10T15:31:55;16.40;99.90
77582;DHT22;66726;52.388;9.986;2023-05-10T15:34:27;16.40;99.90
77582;DHT22;66726;52.388;9.986;2023-05-10T15:37:02;16.40;99.90
77582;DHT22;66726;52.388;9.986;2023-05-10T15:39:34;16.40;99.90
77582;DHT22;66726;52.388;9.986;2023-05-10T15:42:08;16.40;99.90
77582;DHT22;66726;52.388;9.986;2023-05-10T15:44:41;16.40;99.90
77582;DHT22;66726;52.388;9.986;2023-05-10T15:47:13;16.30;99.90
77582;DHT22;66726;52.388;9.986;2023-05-10T15:49:45;16.20;99.90
77582;DHT22;66726;52.388;9.986;2023-05-10T15:52:16;16.30;99.90
77582;DHT22;66726;52.388;9.986;2023-05-10T15:54:49;16.30;99.90
77582;DHT22;66726;52.388;9.986;2023-05-10T15:57:22;16.30;99.90
77582;DHT22;66726;52.388;9.986;2023-05-10T15:59:54;16.20;99.90
77582;DHT22;66726;52.388;9.986;2023-05-10T16:02:26;16.20;99.90
77582;DHT22;66726;52.388;9.986;2023-05-10T16:04:57;16.20;99.90
77582;DHT22;66726;52.388;9.986;2023-05-10T16:07:29;16.20;99.90
77582;DHT22;66726;52.388;9.986;2023-05-10T16:10:01;16.20;99.90
77582;DHT22;66726;52.388;9.986;2023-05-10T16:12:36;16.30;99.90
77582;DHT22;66726;52.388;9.986;2023-05-10T16:15:10;16.30;99.90